x

Settlement Point, Gbi (spgf1) Weather Station

5:00am - Fri 27th May 2016 All times are EDT. -4 hours from GMT.

  • Wind
    13mph, 14mph gusts
  • Air Temp 77°f
  • Sea Pressure 1015.5mb
  • Settlement Point, Gbi
  • Settlement Point, Gbi

More Historic Weather Station data

Upgrade to MSW Pro to gain access to the past 30 days of data for over 8000 Wavebouys and Weather Stations around the globe.

Join Pro

Comparision Forecast

View Surf forecast
   
Fri 05/27 5:00am 13 14 mph 1015.5mb 77f
4:00am 16 18 mph 1015.9mb 77f
3:00am 13 15 mph 1016.4mb 77f
2:00am 17 18 mph 1016.6mb 78f
1:00am 18 20 mph 1017.2mb 78f
12:00am 20 21 mph 1017.9mb 78f
Thu 05/26 11:00pm 18 22 mph 1018.3mb 78f
10:00pm 18 21 mph 1018.1mb 78f
9:00pm 18 20 mph 1017.8mb 78f
8:00pm 20 22 mph 1017.6mb 78f
7:00pm 17 20 mph 1017.8mb 79f
6:00pm 17 20 mph 1017.6mb 79f
5:00pm 17 20 mph 1018mb 79f
4:00pm 17 18 mph 1018.7mb 79f
3:00pm 17 20 mph 1019.1mb 79f
2:00pm 18 20 mph 1019.1mb 79f
1:00pm 20 22 mph 1019.5mb 78f
12:00pm 18 20 mph 1020.1mb 78f
11:00am 15 17 mph 1020.1mb 78f
10:00am 13 15 mph 1020.5mb 78f
9:00am 10 11 mph 1020.5mb 78f
8:00am 11 13 mph 1020.5mb 78f
7:00am 14 16 mph 1020.3mb 77f
6:00am 14 15 mph 1019.8mb 77f
5:00am 13 14 mph 1019.8mb 77f
4:00am 15 17 mph 1020mb 77f
3:00am 16 17 mph 1020.3mb 77f
2:00am 10 13 mph 1021mb 77f
1:00am 15 16 mph 1021.3mb 78f
12:00am 16 17 mph 1021.6mb 78f
Wed 05/25 11:00pm 14 16 mph 1022.1mb 78f
10:00pm 15 18 mph 1022mb 78f
9:00pm 15 16 mph 1021.6mb 78f
8:00pm 16 20 mph 1021.5mb 78f
7:00pm 15 18 mph 1021.2mb 78f
6:00pm 16 17 mph 1021.2mb 79f
5:00pm 15 18 mph 1021.5mb 79f
4:00pm 15 20 mph 1022.3mb 79f
3:00pm 17 18 mph 1022.7mb 78f
2:00pm 17 20 mph 1023.3mb 78f
1:00pm 18 20 mph 1023.3mb 78f
12:00pm 17 21 mph 1023.6mb 78f
11:00am 16 18 mph 1023.6mb 78f
10:00am 17 20 mph 1023.3mb 78f
9:00am 17 20 mph 1022.6mb 78f
8:00am 16 18 mph 1022.1mb 78f
7:00am 17 20 mph 1021.6mb 78f
6:00am 17 20 mph 1021.1mb 78f
5:00am 18 21 mph 1021.1mb 78f
4:00am 17 21 mph 1021.1mb 78f
3:00am 17 18 mph 1021mb 78f
2:00am 15 18 mph 1021.1mb 78f
1:00am 16 18 mph 1021.4mb 78f
12:00am 15 16 mph 1021.8mb 79f
Tue 05/24 11:00pm 14 16 mph 1021.9mb 79f
10:00pm 17 20 mph 1021.4mb 80f
9:00pm 18 21 mph 1021.1mb 80f
8:00pm 16 17 mph 1020.9mb 80f
7:00pm 18 21 mph 1020.2mb 80f
6:00pm 20 23 mph 1020mb 81f
5:00pm 17 18 mph 1020mb 81f
4:00pm 18 21 mph 1020.1mb 80f
3:00pm 17 21 mph 1020.4mb 80f
2:00pm 14 17 mph 1020.7mb 80f
1:00pm 16 17 mph 1020.9mb 80f
12:00pm 11 14 mph 1021.1mb 79f
11:00am 13 15 mph 1020.2mb 80f
10:00am 15 17 mph 1019.6mb 80f
9:00am 10 13 mph 1019mb 80f
8:00am 3 5 mph 1018.3mb 82f
7:00am 2 3 mph 1017.7mb 78f
6:00am 5
mph
1017.1mb 77f
5:00am 2
mph
1016.7mb 78f
4:00am 2
mph
1016.8mb 78f
3:00am 5
mph
1017mb 79f
2:00am  -  1 mph 1017.3mb 78f
1:00am 3 5 mph 1017.5mb 79f
12:00am 1 2 mph 1017.3mb 79f
Mon 05/23 11:00pm  -  mph 1017.1mb 79f
10:00pm  -  1 mph 1016.9mb 79f
9:00pm 2 3 mph 1016.2mb 79f
8:00pm 1 2 mph 1015.2mb 79f
7:00pm 7
mph
1014.4mb 80f
6:00pm 9 10 mph 1014.1mb 80f
5:00pm 9 10 mph 1013.9mb 81f
4:00pm 8 9 mph 1014.3mb 80f
3:00pm 6 8 mph 1015mb 80f
2:00pm 9 10 mph 1014.9mb 80f
1:00pm 8 9 mph 1015mb 79f
12:00pm 7 8 mph 1015mb 80f
11:00am 8 9 mph 1015mb 80f